sensor_id;sensor_type;location;lat;lon;timestamp;P1;durP1;ratioP1;P2;durP2;ratioP2
42420;SDS011;28063;48.140;11.588;2023-07-13T00:02:23;2.95;;;1.75;;
42420;SDS011;28063;48.140;11.588;2023-07-13T00:04:49;2.58;;;2.15;;
42420;SDS011;28063;48.140;11.588;2023-07-13T00:07:15;2.10;;;2.00;;
42420;SDS011;28063;48.140;11.588;2023-07-13T00:09:45;1.75;;;1.65;;
42420;SDS011;28063;48.140;11.588;2023-07-13T00:12:22;1.65;;;1.55;;
42420;SDS011;28063;48.140;11.588;2023-07-13T00:14:52;1.17;;;1.10;;
42420;SDS011;28063;48.140;11.588;2023-07-13T00:17:18;1.88;;;1.73;;
42420;SDS011;28063;48.140;11.588;2023-07-13T00:19:44;2.33;;;1.50;;
42420;SDS011;28063;48.140;11.588;2023-07-13T00:22:10;1.35;;;1.25;;
42420;SDS011;28063;48.140;11.588;2023-07-13T00:24:36;1.40;;;1.30;;
42420;SDS011;28063;48.140;11.588;2023-07-13T00:27:06;2.05;;;1.45;;
42420;SDS011;28063;48.140;11.588;2023-07-13T00:29:33;1.38;;;1.27;;
42420;SDS011;28063;48.140;11.588;2023-07-13T00:31:59;1.50;;;1.40;;
42420;SDS011;28063;48.140;11.588;2023-07-13T00:34:25;1.00;;;1.00;;
42420;SDS011;28063;48.140;11.588;2023-07-13T00:36:51;1.40;;;1.30;;
42420;SDS011;28063;48.140;11.588;2023-07-13T00:39:16;1.40;;;1.30;;
42420;SDS011;28063;48.140;11.588;2023-07-13T00:41:42;1.20;;;1.20;;
42420;SDS011;28063;48.140;11.588;2023-07-13T00:44:13;1.40;;;1.30;;
42420;SDS011;28063;48.140;11.588;2023-07-13T00:46:40;1.30;;;1.10;;
42420;SDS011;28063;48.140;11.588;2023-07-13T00:49:07;1.20;;;1.10;;
42420;SDS011;28063;48.140;11.588;2023-07-13T00:51:47;1.17;;;1.17;;
42420;SDS011;28063;48.140;11.588;2023-07-13T00:54:18;0.82;;;0.82;;
42420;SDS011;28063;48.140;11.588;2023-07-13T00:56:50;1.65;;;1.55;;
42420;SDS011;28063;48.140;11.588;2023-07-13T00:59:18;1.33;;;1.33;;
42420;SDS011;28063;48.140;11.588;2023-07-13T01:01:45;1.27;;;1.20;;
42420;SDS011;28063;48.140;11.588;2023-07-13T01:04:12;1.95;;;1.10;;
42420;SDS011;28063;48.140;11.588;2023-07-13T01:06:39;1.30;;;1.02;;
42420;SDS011;28063;48.140;11.588;2023-07-13T01:09:06;1.10;;;1.00;;
42420;SDS011;28063;48.140;11.588;2023-07-13T01:11:33;1.23;;;1.20;;
42420;SDS011;28063;48.140;11.588;2023-07-13T01:13:59;1.42;;;1.33;;
42420;SDS011;28063;48.140;11.588;2023-07-13T01:16:27;1.30;;;1.15;;
42420;SDS011;28063;48.140;11.588;2023-07-13T01:18:55;1.20;;;1.10;;
42420;SDS011;28063;48.140;11.588;2023-07-13T01:21:25;1.58;;;1.40;;
42420;SDS011;28063;48.140;11.588;2023-07-13T01:23:52;1.25;;;1.25;;
42420;SDS011;28063;48.140;11.588;2023-07-13T01:26:17;1.20;;;1.10;;
42420;SDS011;28063;48.140;11.588;2023-07-13T01:28:43;1.20;;;1.20;;
42420;SDS011;28063;48.140;11.588;2023-07-13T01:31:09;1.60;;;1.40;;
42420;SDS011;28063;48.140;11.588;2023-07-13T01:33:36;0.98;;;0.98;;
42420;SDS011;28063;48.140;11.588;2023-07-13T01:36:04;2.03;;;0.80;;
42420;SDS011;28063;48.140;11.588;2023-07-13T01:38:31;1.02;;;1.02;;
42420;SDS011;28063;48.140;11.588;2023-07-13T01:40:58;1.70;;;1.20;;
42420;SDS011;28063;48.140;11.588;2023-07-13T01:43:24;0.82;;;0.80;;
42420;SDS011;28063;48.140;11.588;2023-07-13T01:45:50;1.20;;;1.10;;
42420;SDS011;28063;48.140;11.588;2023-07-13T01:48:15;1.40;;;1.30;;
42420;SDS011;28063;48.140;11.588;2023-07-13T01:50:41;1.10;;;1.10;;
42420;SDS011;28063;48.140;11.588;2023-07-13T01:53:07;1.25;;;1.15;;
42420;SDS011;28063;48.140;11.588;2023-07-13T01:55:33;1.15;;;1.08;;
42420;SDS011;28063;48.140;11.588;2023-07-13T01:58:00;3.30;;;2.17;;
42420;SDS011;28063;48.140;11.588;2023-07-13T02:00:26;4.10;;;2.20;;
42420;SDS011;28063;48.140;11.588;2023-07-13T02:02:52;3.08;;;2.60;;
42420;SDS011;28063;48.140;11.588;2023-07-13T02:05:17;7.13;;;2.53;;
42420;SDS011;28063;48.140;11.588;2023-07-13T02:07:43;2.42;;;1.90;;
42420;SDS011;28063;48.140;11.588;2023-07-13T02:10:09;2.15;;;2.05;;
42420;SDS011;28063;48.140;11.588;2023-07-13T02:12:36;2.80;;;1.92;;
42420;SDS011;28063;48.140;11.588;2023-07-13T02:15:03;2.00;;;1.80;;
42420;SDS011;28063;48.140;11.588;2023-07-13T02:17:29;1.60;;;1.50;;
42420;SDS011;28063;48.140;11.588;2023-07-13T02:19:55;2.03;;;1.80;;
42420;SDS011;28063;48.140;11.588;2023-07-13T02:22:21;1.60;;;1.50;;
42420;SDS011;28063;48.140;11.588;2023-07-13T02:24:46;1.70;;;1.60;;
42420;SDS011;28063;48.140;11.588;2023-07-13T02:27:13;1.10;;;1.10;;
42420;SDS011;28063;48.140;11.588;2023-07-13T02:29:38;1.55;;;1.45;;
42420;SDS011;28063;48.140;11.588;2023-07-13T02:32:04;1.80;;;1.70;;
42420;SDS011;28063;48.140;11.588;2023-07-13T02:34:30;1.70;;;1.58;;
42420;SDS011;28063;48.140;11.588;2023-07-13T02:36:56;1.85;;;1.75;;
42420;SDS011;28063;48.140;11.588;2023-07-13T02:39:22;2.00;;;1.80;;
42420;SDS011;28063;48.140;11.588;2023-07-13T02:41:47;2.95;;;2.00;;
42420;SDS011;28063;48.140;11.588;2023-07-13T02:44:13;2.47;;;2.10;;
42420;SDS011;28063;48.140;11.588;2023-07-13T02:46:40;2.55;;;2.35;;
42420;SDS011;28063;48.140;11.588;2023-07-13T02:49:06;3.95;;;3.00;;
42420;SDS011;28063;48.140;11.588;2023-07-13T02:51:31;2.97;;;2.65;;
42420;SDS011;28063;48.140;11.588;2023-07-13T02:53:59;3.25;;;2.40;;
42420;SDS011;28063;48.140;11.588;2023-07-13T02:56:26;6.93;;;3.20;;
42420;SDS011;28063;48.140;11.588;2023-07-13T02:58:53;3.78;;;2.70;;
42420;SDS011;28063;48.140;11.588;2023-07-13T03:01:19;3.53;;;3.00;;
42420;SDS011;28063;48.140;11.588;2023-07-13T03:03:46;7.78;;;3.47;;
42420;SDS011;28063;48.140;11.588;2023-07-13T03:06:12;3.63;;;3.30;;
42420;SDS011;28063;48.140;11.588;2023-07-13T03:08:38;7.30;;;3.15;;
42420;SDS011;28063;48.140;11.588;2023-07-13T03:11:09;3.88;;;2.50;;
42420;SDS011;28063;48.140;11.588;2023-07-13T03:13:38;4.00;;;2.40;;
42420;SDS011;28063;48.140;11.588;2023-07-13T03:16:04;2.55;;;2.35;;
42420;SDS011;28063;48.140;11.588;2023-07-13T03:18:31;2.78;;;2.58;;
42420;SDS011;28063;48.140;11.588;2023-07-13T03:20:57;2.45;;;2.25;;
42420;SDS011;28063;48.140;11.588;2023-07-13T03:23:22;2.70;;;2.25;;
42420;SDS011;28063;48.140;11.588;2023-07-13T03:25:49;2.22;;;2.03;;
42420;SDS011;28063;48.140;11.588;2023-07-13T03:28:25;2.95;;;2.42;;
42420;SDS011;28063;48.140;11.588;2023-07-13T03:30:58;3.60;;;2.45;;
42420;SDS011;28063;48.140;11.588;2023-07-13T03:33:28;2.55;;;2.35;;
42420;SDS011;28063;48.140;11.588;2023-07-13T03:35:54;3.13;;;2.70;;
42420;SDS011;28063;48.140;11.588;2023-07-13T03:38:19;3.75;;;2.53;;
42420;SDS011;28063;48.140;11.588;2023-07-13T03:40:45;2.67;;;2.13;;
42420;SDS011;28063;48.140;11.588;2023-07-13T03:43:11;2.10;;;2.00;;
42420;SDS011;28063;48.140;11.588;2023-07-13T03:45:39;2.47;;;2.28;;
42420;SDS011;28063;48.140;11.588;2023-07-13T03:48:05;2.38;;;2.17;;
42420;SDS011;28063;48.140;11.588;2023-07-13T03:50:31;2.15;;;2.00;;
42420;SDS011;28063;48.140;11.588;2023-07-13T03:52:59;1.77;;;1.67;;
42420;SDS011;28063;48.140;11.588;2023-07-13T03:55:25;1.67;;;1.58;;
42420;SDS011;28063;48.140;11.588;2023-07-13T03:57:54;2.00;;;1.90;;
42420;SDS011;28063;48.140;11.588;2023-07-13T04:00:24;1.60;;;1.50;;
42420;SDS011;28063;48.140;11.588;2023-07-13T04:02:50;1.70;;;1.60;;
42420;SDS011;28063;48.140;11.588;2023-07-13T04:05:16;1.60;;;1.50;;
42420;SDS011;28063;48.140;11.588;2023-07-13T04:07:42;1.52;;;1.42;;
42420;SDS011;28063;48.140;11.588;2023-07-13T04:10:07;1.70;;;1.60;;
42420;SDS011;28063;48.140;11.588;2023-07-13T04:12:33;2.58;;;2.05;;
42420;SDS011;28063;48.140;11.588;2023-07-13T04:14:59;1.70;;;1.60;;
42420;SDS011;28063;48.140;11.588;2023-07-13T04:17:25;1.73;;;1.63;;
42420;SDS011;28063;48.140;11.588;2023-07-13T04:19:51;2.30;;;1.63;;
42420;SDS011;28063;48.140;11.588;2023-07-13T04:22:16;1.45;;;1.35;;
42420;SDS011;28063;48.140;11.588;2023-07-13T04:24:42;1.35;;;1.25;;
42420;SDS011;28063;48.140;11.588;2023-07-13T04:27:08;1.23;;;1.23;;
42420;SDS011;28063;48.140;11.588;2023-07-13T04:29:34;1.30;;;1.30;;
42420;SDS011;28063;48.140;11.588;2023-07-13T04:32:00;1.70;;;1.60;;
42420;SDS011;28063;48.140;11.588;2023-07-13T04:34:25;1.40;;;1.30;;
42420;SDS011;28063;48.140;11.588;2023-07-13T04:36:51;1.38;;;1.30;;
42420;SDS011;28063;48.140;11.588;2023-07-13T04:39:17;1.27;;;1.17;;
42420;SDS011;28063;48.140;11.588;2023-07-13T04:41:42;1.50;;;1.40;;
42420;SDS011;28063;48.140;11.588;2023-07-13T04:44:08;1.10;;;1.10;;
42420;SDS011;28063;48.140;11.588;2023-07-13T04:46:34;1.25;;;1.15;;
42420;SDS011;28063;48.140;11.588;2023-07-13T04:48:59;1.15;;;1.15;;
42420;SDS011;28063;48.140;11.588;2023-07-13T04:51:25;1.30;;;1.20;;
42420;SDS011;28063;48.140;11.588;2023-07-13T04:53:51;1.08;;;1.08;;
42420;SDS011;28063;48.140;11.588;2023-07-13T04:56:17;1.38;;;1.27;;
42420;SDS011;28063;48.140;11.588;2023-07-13T04:58:42;2.05;;;1.25;;
42420;SDS011;28063;48.140;11.588;2023-07-13T05:01:09;1.33;;;1.23;;
42420;SDS011;28063;48.140;11.588;2023-07-13T05:03:34;1.55;;;1.42;;
42420;SDS011;28063;48.140;11.588;2023-07-13T05:06:02;1.42;;;1.33;;
42420;SDS011;28063;48.140;11.588;2023-07-13T05:08:29;1.52;;;1.42;;
42420;SDS011;28063;48.140;11.588;2023-07-13T05:10:55;1.67;;;1.40;;
42420;SDS011;28063;48.140;11.588;2023-07-13T05:13:20;1.88;;;1.73;;
42420;SDS011;28063;48.140;11.588;2023-07-13T05:15:47;1.20;;;1.20;;
42420;SDS011;28063;48.140;11.588;2023-07-13T05:18:21;1.30;;;1.20;;
42420;SDS011;28063;48.140;11.588;2023-07-13T05:20:46;1.30;;;1.20;;
42420;SDS011;28063;48.140;11.588;2023-07-13T05:23:19;1.65;;;1.48;;
42420;SDS011;28063;48.140;11.588;2023-07-13T05:25:44;1.98;;;1.50;;
42420;SDS011;28063;48.140;11.588;2023-07-13T05:28:10;1.35;;;1.25;;
42420;SDS011;28063;48.140;11.588;2023-07-13T05:30:36;2.63;;;1.98;;
42420;SDS011;28063;48.140;11.588;2023-07-13T05:33:02;1.60;;;1.50;;
42420;SDS011;28063;48.140;11.588;2023-07-13T05:35:28;3.13;;;1.95;;
42420;SDS011;28063;48.140;11.588;2023-07-13T05:37:54;2.30;;;1.73;;
42420;SDS011;28063;48.140;11.588;2023-07-13T05:40:20;1.33;;;1.23;;
42420;SDS011;28063;48.140;11.588;2023-07-13T05:42:46;3.53;;;2.00;;
42420;SDS011;28063;48.140;11.588;2023-07-13T05:45:12;1.70;;;1.60;;
42420;SDS011;28063;48.140;11.588;2023-07-13T05:47:38;2.38;;;1.80;;
42420;SDS011;28063;48.140;11.588;2023-07-13T05:50:04;2.55;;;1.63;;
42420;SDS011;28063;48.140;11.588;2023-07-13T05:52:30;1.58;;;1.50;;
42420;SDS011;28063;48.140;11.588;2023-07-13T05:54:56;1.35;;;1.23;;
42420;SDS011;28063;48.140;11.588;2023-07-13T05:57:22;1.63;;;1.30;;
42420;SDS011;28063;48.140;11.588;2023-07-13T05:59:48;1.35;;;1.25;;
42420;SDS011;28063;48.140;11.588;2023-07-13T06:02:13;1.50;;;1.33;;
42420;SDS011;28063;48.140;11.588;2023-07-13T06:04:39;1.77;;;1.60;;
42420;SDS011;28063;48.140;11.588;2023-07-13T06:07:05;1.70;;;1.60;;
42420;SDS011;28063;48.140;11.588;2023-07-13T06:09:30;2.53;;;1.58;;
42420;SDS011;28063;48.140;11.588;2023-07-13T06:11:56;1.98;;;1.45;;
42420;SDS011;28063;48.140;11.588;2023-07-13T06:14:21;1.30;;;1.20;;
42420;SDS011;28063;48.140;11.588;2023-07-13T06:16:47;5.13;;;2.10;;
42420;SDS011;28063;48.140;11.588;2023-07-13T06:19:13;2.92;;;1.67;;
42420;SDS011;28063;48.140;11.588;2023-07-13T06:21:38;2.00;;;1.77;;
42420;SDS011;28063;48.140;11.588;2023-07-13T06:24:04;2.13;;;1.58;;
42420;SDS011;28063;48.140;11.588;2023-07-13T06:26:30;2.55;;;1.73;;
42420;SDS011;28063;48.140;11.588;2023-07-13T06:28:56;2.35;;;1.52;;
42420;SDS011;28063;48.140;11.588;2023-07-13T06:31:22;3.72;;;2.08;;
42420;SDS011;28063;48.140;11.588;2023-07-13T06:33:48;2.42;;;1.80;;
42420;SDS011;28063;48.140;11.588;2023-07-13T06:36:14;1.98;;;1.52;;
42420;SDS011;28063;48.140;11.588;2023-07-13T06:38:39;1.92;;;1.60;;
42420;SDS011;28063;48.140;11.588;2023-07-13T06:41:06;1.77;;;1.67;;
42420;SDS011;28063;48.140;11.588;2023-07-13T06:43:32;2.92;;;2.00;;
42420;SDS011;28063;48.140;11.588;2023-07-13T06:45:58;1.70;;;1.60;;
42420;SDS011;28063;48.140;11.588;2023-07-13T06:48:24;1.98;;;1.60;;
42420;SDS011;28063;48.140;11.588;2023-07-13T06:50:50;1.30;;;1.20;;
42420;SDS011;28063;48.140;11.588;2023-07-13T06:53:18;1.50;;;1.40;;
42420;SDS011;28063;48.140;11.588;2023-07-13T06:55:45;1.30;;;1.20;;
42420;SDS011;28063;48.140;11.588;2023-07-13T06:58:11;2.20;;;1.50;;
42420;SDS011;28063;48.140;11.588;2023-07-13T07:00:38;1.42;;;1.33;;
42420;SDS011;28063;48.140;11.588;2023-07-13T07:03:05;0.88;;;0.88;;
42420;SDS011;28063;48.140;11.588;2023-07-13T07:05:31;1.23;;;1.13;;
42420;SDS011;28063;48.140;11.588;2023-07-13T07:07:56;1.75;;;1.55;;
42420;SDS011;28063;48.140;11.588;2023-07-13T07:10:22;1.65;;;1.40;;
42420;SDS011;28063;48.140;11.588;2023-07-13T07:12:48;2.03;;;1.75;;
42420;SDS011;28063;48.140;11.588;2023-07-13T07:15:13;1.90;;;1.60;;
42420;SDS011;28063;48.140;11.588;2023-07-13T07:17:39;1.67;;;1.42;;
42420;SDS011;28063;48.140;11.588;2023-07-13T07:20:05;2.05;;;1.58;;
42420;SDS011;28063;48.140;11.588;2023-07-13T07:22:32;3.70;;;1.88;;
42420;SDS011;28063;48.140;11.588;2023-07-13T07:24:58;2.15;;;1.80;;
42420;SDS011;28063;48.140;11.588;2023-07-13T07:27:23;5.63;;;2.13;;
42420;SDS011;28063;48.140;11.588;2023-07-13T07:29:49;2.25;;;1.63;;
42420;SDS011;28063;48.140;11.588;2023-07-13T07:32:15;3.33;;;1.90;;
42420;SDS011;28063;48.140;11.588;2023-07-13T07:34:41;1.63;;;1.52;;
42420;SDS011;28063;48.140;11.588;2023-07-13T07:37:06;5.57;;;1.65;;
42420;SDS011;28063;48.140;11.588;2023-07-13T07:39:35;1.55;;;1.45;;
42420;SDS011;28063;48.140;11.588;2023-07-13T07:42:01;1.98;;;1.42;;
42420;SDS011;28063;48.140;11.588;2023-07-13T07:44:27;2.95;;;1.67;;
42420;SDS011;28063;48.140;11.588;2023-07-13T07:46:53;2.47;;;1.63;;
42420;SDS011;28063;48.140;11.588;2023-07-13T07:49:19;3.58;;;1.90;;
42420;SDS011;28063;48.140;11.588;2023-07-13T07:51:45;4.80;;;1.90;;
42420;SDS011;28063;48.140;11.588;2023-07-13T07:54:10;7.10;;;2.30;;
42420;SDS011;28063;48.140;11.588;2023-07-13T07:56:36;5.22;;;2.22;;
42420;SDS011;28063;48.140;11.588;2023-07-13T07:59:02;2.63;;;1.60;;
42420;SDS011;28063;48.140;11.588;2023-07-13T08:01:27;2.85;;;1.85;;
42420;SDS011;28063;48.140;11.588;2023-07-13T08:03:53;2.30;;;1.70;;
42420;SDS011;28063;48.140;11.588;2023-07-13T08:06:19;2.75;;;2.35;;
42420;SDS011;28063;48.140;11.588;2023-07-13T08:08:45;5.40;;;1.98;;
42420;SDS011;28063;48.140;11.588;2023-07-13T08:11:11;3.05;;;2.42;;
42420;SDS011;28063;48.140;11.588;2023-07-13T08:13:37;2.30;;;2.10;;
42420;SDS011;28063;48.140;11.588;2023-07-13T08:16:04;2.75;;;2.10;;
42420;SDS011;28063;48.140;11.588;2023-07-13T08:18:30;3.55;;;1.85;;
42420;SDS011;28063;48.140;11.588;2023-07-13T08:20:56;2.80;;;1.75;;
42420;SDS011;28063;48.140;11.588;2023-07-13T08:23:23;2.80;;;1.90;;
42420;SDS011;28063;48.140;11.588;2023-07-13T08:25:52;3.05;;;1.90;;
42420;SDS011;28063;48.140;11.588;2023-07-13T08:28:21;1.70;;;1.50;;
42420;SDS011;28063;48.140;11.588;2023-07-13T08:30:47;5.93;;;1.85;;
42420;SDS011;28063;48.140;11.588;2023-07-13T08:33:14;1.85;;;1.38;;
42420;SDS011;28063;48.140;11.588;2023-07-13T08:35:47;3.38;;;1.42;;
42420;SDS011;28063;48.140;11.588;2023-07-13T08:38:13;4.05;;;2.13;;
42420;SDS011;28063;48.140;11.588;2023-07-13T08:40:40;3.25;;;1.70;;
42420;SDS011;28063;48.140;11.588;2023-07-13T08:43:09;5.47;;;2.03;;
42420;SDS011;28063;48.140;11.588;2023-07-13T08:45:53;4.10;;;1.90;;
42420;SDS011;28063;48.140;11.588;2023-07-13T08:48:44;2.67;;;1.58;;
42420;SDS011;28063;48.140;11.588;2023-07-13T08:54:02;3.88;;;1.77;;
42420;SDS011;28063;48.140;11.588;2023-07-13T08:56:43;2.22;;;1.17;;
42420;SDS011;28063;48.140;11.588;2023-07-13T08:59:13;2.08;;;1.40;;
42420;SDS011;28063;48.140;11.588;2023-07-13T09:05:22;2.83;;;1.48;;
42420;SDS011;28063;48.140;11.588;2023-07-13T09:10:26;1.63;;;1.52;;
42420;SDS011;28063;48.140;11.588;2023-07-13T09:12:57;1.48;;;1.15;;
42420;SDS011;28063;48.140;11.588;2023-07-13T09:15:44;3.03;;;1.60;;
42420;SDS011;28063;48.140;11.588;2023-07-13T09:18:12;2.05;;;1.30;;
42420;SDS011;28063;48.140;11.588;2023-07-13T09:21:03;2.25;;;0.90;;
42420;SDS011;28063;48.140;11.588;2023-07-13T09:23:34;2.85;;;1.58;;
42420;SDS011;28063;48.140;11.588;2023-07-13T09:26:22;1.40;;;1.30;;
42420;SDS011;28063;48.140;11.588;2023-07-13T09:28:57;2.45;;;1.42;;
42420;SDS011;28063;48.140;11.588;2023-07-13T09:31:37;1.42;;;0.88;;
42420;SDS011;28063;48.140;11.588;2023-07-13T09:34:10;1.30;;;0.95;;
42420;SDS011;28063;48.140;11.588;2023-07-13T09:36:37;1.20;;;1.00;;
42420;SDS011;28063;48.140;11.588;2023-07-13T09:41:51;1.48;;;1.17;;
42420;SDS011;28063;48.140;11.588;2023-07-13T09:44:30;1.10;;;1.00;;
42420;SDS011;28063;48.140;11.588;2023-07-13T09:46:59;3.25;;;1.10;;
42420;SDS011;28063;48.140;11.588;2023-07-13T09:49:25;1.83;;;1.58;;
42420;SDS011;28063;48.140;11.588;2023-07-13T09:51:57;1.63;;;1.10;;
42420;SDS011;28063;48.140;11.588;2023-07-13T09:54:32;0.90;;;0.90;;
42420;SDS011;28063;48.140;11.588;2023-07-13T09:57:01;4.38;;;1.20;;
42420;SDS011;28063;48.140;11.588;2023-07-13T09:59:29;2.53;;;1.10;;
42420;SDS011;28063;48.140;11.588;2023-07-13T10:01:59;1.98;;;1.40;;
42420;SDS011;28063;48.140;11.588;2023-07-13T10:04:34;2.45;;;1.00;;
42420;SDS011;28063;48.140;11.588;2023-07-13T10:07:07;1.45;;;1.00;;
42420;SDS011;28063;48.140;11.588;2023-07-13T10:09:36;0.63;;;0.63;;
42420;SDS011;28063;48.140;11.588;2023-07-13T10:12:03;2.00;;;0.90;;
42420;SDS011;28063;48.140;11.588;2023-07-13T10:14:38;1.05;;;0.90;;
42420;SDS011;28063;48.140;11.588;2023-07-13T10:17:04;1.60;;;0.90;;
42420;SDS011;28063;48.140;11.588;2023-07-13T10:19:37;2.95;;;1.55;;
42420;SDS011;28063;48.140;11.588;2023-07-13T10:22:14;2.25;;;1.20;;
42420;SDS011;28063;48.140;11.588;2023-07-13T10:25:02;2.25;;;0.75;;
42420;SDS011;28063;48.140;11.588;2023-07-13T10:27:36;0.95;;;0.90;;
42420;SDS011;28063;48.140;11.588;2023-07-13T10:30:07;4.82;;;1.38;;
42420;SDS011;28063;48.140;11.588;2023-07-13T10:32:57;1.75;;;1.05;;
42420;SDS011;28063;48.140;11.588;2023-07-13T10:35:24;2.20;;;1.30;;
42420;SDS011;28063;48.140;11.588;2023-07-13T10:38:03;2.05;;;1.23;;
42420;SDS011;28063;48.140;11.588;2023-07-13T10:40:36;1.55;;;1.25;;
42420;SDS011;28063;48.140;11.588;2023-07-13T10:43:17;1.48;;;1.00;;
42420;SDS011;28063;48.140;11.588;2023-07-13T10:45:47;1.30;;;0.93;;
42420;SDS011;28063;48.140;11.588;2023-07-13T10:48:15;2.35;;;1.00;;
42420;SDS011;28063;48.140;11.588;2023-07-13T10:50:42;0.77;;;0.77;;
42420;SDS011;28063;48.140;11.588;2023-07-13T10:53:21;1.10;;;1.00;;
42420;SDS011;28063;48.140;11.588;2023-07-13T10:55:55;2.42;;;1.70;;
42420;SDS011;28063;48.140;11.588;2023-07-13T10:58:36;2.83;;;1.85;;
42420;SDS011;28063;48.140;11.588;2023-07-13T11:01:12;2.05;;;1.30;;
42420;SDS011;28063;48.140;11.588;2023-07-13T11:06:09;2.55;;;1.52;;
42420;SDS011;28063;48.140;11.588;2023-07-13T11:11:50;2.63;;;1.13;;
42420;SDS011;28063;48.140;11.588;2023-07-13T11:14:00;2.13;;;1.27;;
42420;SDS011;28063;48.140;11.588;2023-07-13T11:16:37;2.70;;;1.40;;
42420;SDS011;28063;48.140;11.588;2023-07-13T11:24:29;5.00;;;2.15;;
42420;SDS011;28063;48.140;11.588;2023-07-13T11:28:04;4.03;;;1.70;;
42420;SDS011;28063;48.140;11.588;2023-07-13T11:33:10;1.63;;;1.17;;
42420;SDS011;28063;48.140;11.588;2023-07-13T11:35:59;1.92;;;1.30;;
42420;SDS011;28063;48.140;11.588;2023-07-13T11:40:53;2.20;;;1.30;;
42420;SDS011;28063;48.140;11.588;2023-07-13T11:43:20;1.15;;;0.93;;
42420;SDS011;28063;48.140;11.588;2023-07-13T11:45:48;3.22;;;1.23;;
42420;SDS011;28063;48.140;11.588;2023-07-13T11:48:35;1.63;;;1.13;;
42420;SDS011;28063;48.140;11.588;2023-07-13T11:51:03;0.90;;;0.85;;
42420;SDS011;28063;48.140;11.588;2023-07-13T11:53:39;1.35;;;1.20;;
42420;SDS011;28063;48.140;11.588;2023-07-13T11:56:11;1.23;;;1.08;;
42420;SDS011;28063;48.140;11.588;2023-07-13T11:58:37;1.63;;;1.20;;
42420;SDS011;28063;48.140;11.588;2023-07-13T12:01:04;4.38;;;1.65;;
42420;SDS011;28063;48.140;11.588;2023-07-13T12:03:30;1.77;;;1.10;;
42420;SDS011;28063;48.140;11.588;2023-07-13T12:06:02;1.40;;;1.10;;
42420;SDS011;28063;48.140;11.588;2023-07-13T12:08:39;1.25;;;1.10;;
42420;SDS011;28063;48.140;11.588;2023-07-13T12:11:06;1.35;;;0.80;;
42420;SDS011;28063;48.140;11.588;2023-07-13T12:13:40;0.82;;;0.82;;
42420;SDS011;28063;48.140;11.588;2023-07-13T12:16:16;4.05;;;1.55;;
42420;SDS011;28063;48.140;11.588;2023-07-13T12:18:54;1.27;;;1.10;;
42420;SDS011;28063;48.140;11.588;2023-07-13T12:21:23;2.83;;;1.00;;
42420;SDS011;28063;48.140;11.588;2023-07-13T12:23:56;1.05;;;0.95;;
42420;SDS011;28063;48.140;11.588;2023-07-13T12:26:21;2.20;;;1.10;;
42420;SDS011;28063;48.140;11.588;2023-07-13T12:28:49;1.55;;;1.13;;
42420;SDS011;28063;48.140;11.588;2023-07-13T12:31:35;1.25;;;1.13;;
42420;SDS011;28063;48.140;11.588;2023-07-13T12:34:09;1.90;;;1.15;;
42420;SDS011;28063;48.140;11.588;2023-07-13T12:36:37;2.33;;;1.33;;
42420;SDS011;28063;48.140;11.588;2023-07-13T12:39:20;2.92;;;1.15;;
42420;SDS011;28063;48.140;11.588;2023-07-13T12:41:53;2.88;;;1.25;;
42420;SDS011;28063;48.140;11.588;2023-07-13T12:44:27;0.80;;;0.80;;
42420;SDS011;28063;48.140;11.588;2023-07-13T12:46:55;1.90;;;1.30;;
42420;SDS011;28063;48.140;11.588;2023-07-13T12:49:30;1.85;;;1.15;;
42420;SDS011;28063;48.140;11.588;2023-07-13T12:52:01;1.80;;;1.42;;
42420;SDS011;28063;48.140;11.588;2023-07-13T12:54:28;3.10;;;1.40;;
42420;SDS011;28063;48.140;11.588;2023-07-13T12:56:55;1.60;;;1.20;;
42420;SDS011;28063;48.140;11.588;2023-07-13T12:59:23;0.90;;;0.90;;
42420;SDS011;28063;48.140;11.588;2023-07-13T13:01:53;0.95;;;0.95;;
42420;SDS011;28063;48.140;11.588;2023-07-13T13:04:18;1.15;;;1.05;;
42420;SDS011;28063;48.140;11.588;2023-07-13T13:06:48;1.58;;;1.33;;
42420;SDS011;28063;48.140;11.588;2023-07-13T13:09:15;2.28;;;1.70;;
42420;SDS011;28063;48.140;11.588;2023-07-13T13:11:43;2.05;;;1.25;;
42420;SDS011;28063;48.140;11.588;2023-07-13T13:14:09;1.48;;;1.20;;
42420;SDS011;28063;48.140;11.588;2023-07-13T13:16:55;2.03;;;1.30;;
42420;SDS011;28063;48.140;11.588;2023-07-13T13:21:50;2.58;;;1.58;;
42420;SDS011;28063;48.140;11.588;2023-07-13T13:24:18;2.50;;;1.38;;
42420;SDS011;28063;48.140;11.588;2023-07-13T13:26:46;1.88;;;1.45;;
42420;SDS011;28063;48.140;11.588;2023-07-13T13:29:22;2.65;;;1.13;;
42420;SDS011;28063;48.140;11.588;2023-07-13T13:31:49;1.42;;;1.23;;
42420;SDS011;28063;48.140;11.588;2023-07-13T13:34:16;3.92;;;1.45;;
42420;SDS011;28063;48.140;11.588;2023-07-13T13:36:43;1.98;;;1.77;;
42420;SDS011;28063;48.140;11.588;2023-07-13T13:39:16;2.15;;;1.38;;
42420;SDS011;28063;48.140;11.588;2023-07-13T13:41:45;2.20;;;1.20;;
42420;SDS011;28063;48.140;11.588;2023-07-13T13:44:10;1.73;;;1.17;;
42420;SDS011;28063;48.140;11.588;2023-07-13T13:46:38;1.13;;;1.02;;
42420;SDS011;28063;48.140;11.588;2023-07-13T13:49:03;1.30;;;1.10;;
42420;SDS011;28063;48.140;11.588;2023-07-13T13:51:29;1.15;;;1.10;;
42420;SDS011;28063;48.140;11.588;2023-07-13T13:53:55;1.50;;;1.20;;
42420;SDS011;28063;48.140;11.588;2023-07-13T13:56:20;1.77;;;1.42;;
42420;SDS011;28063;48.140;11.588;2023-07-13T13:58:46;2.35;;;1.20;;
42420;SDS011;28063;48.140;11.588;2023-07-13T14:01:21;1.80;;;1.17;;
42420;SDS011;28063;48.140;11.588;2023-07-13T14:03:49;2.65;;;1.67;;
42420;SDS011;28063;48.140;11.588;2023-07-13T14:06:16;2.70;;;1.50;;
42420;SDS011;28063;48.140;11.588;2023-07-13T14:08:42;1.77;;;1.40;;
42420;SDS011;28063;48.140;11.588;2023-07-13T14:11:12;1.63;;;1.17;;
42420;SDS011;28063;48.140;11.588;2023-07-13T14:13:44;3.38;;;2.20;;
42420;SDS011;28063;48.140;11.588;2023-07-13T14:16:17;5.63;;;1.88;;
42420;SDS011;28063;48.140;11.588;2023-07-13T14:18:45;3.35;;;2.15;;
42420;SDS011;28063;48.140;11.588;2023-07-13T14:21:21;1.45;;;1.30;;
42420;SDS011;28063;48.140;11.588;2023-07-13T14:23:47;2.95;;;1.50;;
42420;SDS011;28063;48.140;11.588;2023-07-13T14:26:20;2.78;;;1.50;;
42420;SDS011;28063;48.140;11.588;2023-07-13T14:28:49;2.25;;;1.17;;
42420;SDS011;28063;48.140;11.588;2023-07-13T14:31:17;1.98;;;1.50;;
42420;SDS011;28063;48.140;11.588;2023-07-13T14:33:43;1.40;;;1.30;;
42420;SDS011;28063;48.140;11.588;2023-07-13T14:36:21;2.45;;;1.33;;
42420;SDS011;28063;48.140;11.588;2023-07-13T14:38:54;1.23;;;1.20;;
42420;SDS011;28063;48.140;11.588;2023-07-13T14:41:20;1.40;;;1.30;;
42420;SDS011;28063;48.140;11.588;2023-07-13T14:43:46;1.25;;;1.10;;
42420;SDS011;28063;48.140;11.588;2023-07-13T14:46:32;1.33;;;1.23;;
42420;SDS011;28063;48.140;11.588;2023-07-13T14:49:07;1.38;;;1.17;;
42420;SDS011;28063;48.140;11.588;2023-07-13T14:51:55;1.35;;;1.25;;
42420;SDS011;28063;48.140;11.588;2023-07-13T14:54:25;0.73;;;0.70;;
42420;SDS011;28063;48.140;11.588;2023-07-13T14:56:50;2.15;;;1.67;;
42420;SDS011;28063;48.140;11.588;2023-07-13T14:59:16;3.05;;;1.38;;
42420;SDS011;28063;48.140;11.588;2023-07-13T15:01:44;1.42;;;1.33;;
42420;SDS011;28063;48.140;11.588;2023-07-13T15:04:12;1.30;;;1.20;;
42420;SDS011;28063;48.140;11.588;2023-07-13T15:09:24;1.10;;;1.00;;
42420;SDS011;28063;48.140;11.588;2023-07-13T15:11:57;2.65;;;1.25;;
42420;SDS011;28063;48.140;11.588;2023-07-13T15:14:23;4.10;;;1.95;;
42420;SDS011;28063;48.140;11.588;2023-07-13T15:16:51;1.73;;;1.58;;